sensor_id;sensor_type;location;lat;lon;timestamp;temperature;humidity
2100;DHT22;1055;48.854;9.302;2022-12-07T00:00:28;5.10;99.90
2100;DHT22;1055;48.854;9.302;2022-12-07T00:02:54;5.20;99.90
2100;DHT22;1055;48.854;9.302;2022-12-07T00:05:19;5.10;99.90
2100;DHT22;1055;48.854;9.302;2022-12-07T00:07:45;5.20;99.90
2100;DHT22;1055;48.854;9.302;2022-12-07T00:10:11;5.20;99.90
2100;DHT22;1055;48.854;9.302;2022-12-07T00:12:36;4.90;99.90
2100;DHT22;1055;48.854;9.302;2022-12-07T00:15:02;4.90;99.90
2100;DHT22;1055;48.854;9.302;2022-12-07T00:17:28;4.80;99.90
2100;DHT22;1055;48.854;9.302;2022-12-07T00:19:53;4.70;99.90
2100;DHT22;1055;48.854;9.302;2022-12-07T00:22:19;4.70;99.90
2100;DHT22;1055;48.854;9.302;2022-12-07T00:24:45;4.50;99.90
2100;DHT22;1055;48.854;9.302;2022-12-07T00:27:10;4.60;99.90
2100;DHT22;1055;48.854;9.302;2022-12-07T00:29:36;4.80;99.90
2100;DHT22;1055;48.854;9.302;2022-12-07T00:32:02;4.90;99.90
2100;DHT22;1055;48.854;9.302;2022-12-07T00:34:28;4.70;99.90
2100;DHT22;1055;48.854;9.302;2022-12-07T00:36:54;4.80;99.90
2100;DHT22;1055;48.854;9.302;2022-12-07T00:39:19;4.80;99.90
2100;DHT22;1055;48.854;9.302;2022-12-07T00:41:45;4.70;99.90
2100;DHT22;1055;48.854;9.302;2022-12-07T00:44:10;4.60;99.90
2100;DHT22;1055;48.854;9.302;2022-12-07T00:46:36;4.70;99.90
2100;DHT22;1055;48.854;9.302;2022-12-07T00:49:02;4.90;99.90
2100;DHT22;1055;48.854;9.302;2022-12-07T00:51:28;5.00;99.90
2100;DHT22;1055;48.854;9.302;2022-12-07T00:53:54;5.20;99.90
2100;DHT22;1055;48.854;9.302;2022-12-07T00:56:25;4.70;99.90
2100;DHT22;1055;48.854;9.302;2022-12-07T00:58:59;4.60;99.90
2100;DHT22;1055;48.854;9.302;2022-12-07T01:01:27;4.60;99.90
2100;DHT22;1055;48.854;9.302;2022-12-07T01:03:54;4.70;99.90
2100;DHT22;1055;48.854;9.302;2022-12-07T01:06:21;4.80;99.90
2100;DHT22;1055;48.854;9.302;2022-12-07T01:08:47;4.70;99.90
2100;DHT22;1055;48.854;9.302;2022-12-07T01:11:15;4.60;99.90
2100;DHT22;1055;48.854;9.302;2022-12-07T01:13:42;4.70;99.90
2100;DHT22;1055;48.854;9.302;2022-12-07T01:16:10;4.80;99.90
2100;DHT22;1055;48.854;9.302;2022-12-07T01:18:37;4.80;99.90
2100;DHT22;1055;48.854;9.302;2022-12-07T01:21:09;4.80;99.90
2100;DHT22;1055;48.854;9.302;2022-12-07T01:23:35;4.80;99.90
2100;DHT22;1055;48.854;9.302;2022-12-07T01:26:04;4.90;99.90
2100;DHT22;1055;48.854;9.302;2022-12-07T01:28:30;4.80;99.90
2100;DHT22;1055;48.854;9.302;2022-12-07T01:33:30;5.00;99.90
2100;DHT22;1055;48.854;9.302;2022-12-07T01:36:07;5.00;99.90
2100;DHT22;1055;48.854;9.302;2022-12-07T01:38:33;4.90;99.90
2100;DHT22;1055;48.854;9.302;2022-12-07T01:41:01;4.80;99.90
2100;DHT22;1055;48.854;9.302;2022-12-07T01:43:32;4.80;99.90
2100;DHT22;1055;48.854;9.302;2022-12-07T01:45:58;4.80;99.90
2100;DHT22;1055;48.854;9.302;2022-12-07T01:48:37;4.70;99.90
2100;DHT22;1055;48.854;9.302;2022-12-07T01:51:06;4.60;99.90
2100;DHT22;1055;48.854;9.302;2022-12-07T01:53:36;4.50;99.90
2100;DHT22;1055;48.854;9.302;2022-12-07T01:56:05;4.50;99.90
2100;DHT22;1055;48.854;9.302;2022-12-07T01:58:31;4.40;99.90
2100;DHT22;1055;48.854;9.302;2022-12-07T02:00:57;4.40;99.90
2100;DHT22;1055;48.854;9.302;2022-12-07T02:03:34;4.30;99.90
2100;DHT22;1055;48.854;9.302;2022-12-07T02:06:01;4.30;99.90
2100;DHT22;1055;48.854;9.302;2022-12-07T02:08:27;4.30;99.90
2100;DHT22;1055;48.854;9.302;2022-12-07T02:10:53;4.30;99.90
2100;DHT22;1055;48.854;9.302;2022-12-07T02:13:23;4.30;99.90
2100;DHT22;1055;48.854;9.302;2022-12-07T02:16:08;4.30;99.90
2100;DHT22;1055;48.854;9.302;2022-12-07T02:18:47;4.30;99.90
2100;DHT22;1055;48.854;9.302;2022-12-07T02:32:44;4.10;99.90
2100;DHT22;1055;48.854;9.302;2022-12-07T02:40:40;4.00;99.90
2100;DHT22;1055;48.854;9.302;2022-12-07T02:43:14;4.00;99.90
2100;DHT22;1055;48.854;9.302;2022-12-07T02:45:42;3.90;99.90
2100;DHT22;1055;48.854;9.302;2022-12-07T02:48:12;3.90;99.90
2100;DHT22;1055;48.854;9.302;2022-12-07T02:50:38;3.90;99.90
2100;DHT22;1055;48.854;9.302;2022-12-07T02:53:04;3.80;99.90
2100;DHT22;1055;48.854;9.302;2022-12-07T02:55:38;3.80;99.90
2100;DHT22;1055;48.854;9.302;2022-12-07T03:00:45;3.80;99.90
2100;DHT22;1055;48.854;9.302;2022-12-07T03:03:16;3.80;99.90
2100;DHT22;1055;48.854;9.302;2022-12-07T03:06:06;3.90;99.90
2100;DHT22;1055;48.854;9.302;2022-12-07T03:14:00;3.90;99.90
2100;DHT22;1055;48.854;9.302;2022-12-07T03:19:21;4.00;99.90
2100;DHT22;1055;48.854;9.302;2022-12-07T03:22:11;4.00;99.90
2100;DHT22;1055;48.854;9.302;2022-12-07T03:24:45;4.10;99.90
2100;DHT22;1055;48.854;9.302;2022-12-07T03:27:19;4.10;99.90
2100;DHT22;1055;48.854;9.302;2022-12-07T03:29:49;4.20;99.90
2100;DHT22;1055;48.854;9.302;2022-12-07T03:32:23;4.40;99.90
2100;DHT22;1055;48.854;9.302;2022-12-07T03:37:53;4.70;99.90
2100;DHT22;1055;48.854;9.302;2022-12-07T03:40:29;4.70;99.90
2100;DHT22;1055;48.854;9.302;2022-12-07T03:42:56;4.70;99.90
2100;DHT22;1055;48.854;9.302;2022-12-07T03:45:40;4.50;99.90
2100;DHT22;1055;48.854;9.302;2022-12-07T03:48:16;4.30;99.90
2100;DHT22;1055;48.854;9.302;2022-12-07T03:51:00;4.30;99.90
2100;DHT22;1055;48.854;9.302;2022-12-07T03:54:15;4.50;99.90
2100;DHT22;1055;48.854;9.302;2022-12-07T03:56:22;4.70;99.90
2100;DHT22;1055;48.854;9.302;2022-12-07T03:58:49;4.40;99.90
2100;DHT22;1055;48.854;9.302;2022-12-07T04:01:15;4.60;99.90
2100;DHT22;1055;48.854;9.302;2022-12-07T04:03:40;4.60;99.90
2100;DHT22;1055;48.854;9.302;2022-12-07T04:06:06;4.50;99.90
2100;DHT22;1055;48.854;9.302;2022-12-07T04:08:32;4.60;99.90
2100;DHT22;1055;48.854;9.302;2022-12-07T04:10:57;4.70;99.90
2100;DHT22;1055;48.854;9.302;2022-12-07T04:13:23;4.60;99.90
2100;DHT22;1055;48.854;9.302;2022-12-07T04:15:48;4.30;99.90
2100;DHT22;1055;48.854;9.302;2022-12-07T04:18:14;3.50;99.90
2100;DHT22;1055;48.854;9.302;2022-12-07T04:20:39;3.00;99.90
2100;DHT22;1055;48.854;9.302;2022-12-07T04:23:05;2.80;99.90
2100;DHT22;1055;48.854;9.302;2022-12-07T04:25:31;2.60;99.90
2100;DHT22;1055;48.854;9.302;2022-12-07T04:27:56;2.60;99.90
2100;DHT22;1055;48.854;9.302;2022-12-07T04:30:22;2.60;99.90
2100;DHT22;1055;48.854;9.302;2022-12-07T04:32:47;2.50;99.90
2100;DHT22;1055;48.854;9.302;2022-12-07T04:35:13;2.60;99.90
2100;DHT22;1055;48.854;9.302;2022-12-07T04:37:39;3.00;99.90
2100;DHT22;1055;48.854;9.302;2022-12-07T04:40:07;3.30;99.90
2100;DHT22;1055;48.854;9.302;2022-12-07T04:42:33;3.30;99.90
2100;DHT22;1055;48.854;9.302;2022-12-07T04:44:58;3.20;99.90
2100;DHT22;1055;48.854;9.302;2022-12-07T04:47:24;3.30;99.90
2100;DHT22;1055;48.854;9.302;2022-12-07T04:49:49;3.50;99.90
2100;DHT22;1055;48.854;9.302;2022-12-07T04:52:15;3.40;99.90
2100;DHT22;1055;48.854;9.302;2022-12-07T04:54:41;3.30;99.90
2100;DHT22;1055;48.854;9.302;2022-12-07T04:57:06;3.50;99.90
2100;DHT22;1055;48.854;9.302;2022-12-07T04:59:32;3.80;99.90
2100;DHT22;1055;48.854;9.302;2022-12-07T05:01:57;4.00;99.90
2100;DHT22;1055;48.854;9.302;2022-12-07T05:04:23;4.10;99.90
2100;DHT22;1055;48.854;9.302;2022-12-07T05:06:48;4.20;99.90
2100;DHT22;1055;48.854;9.302;2022-12-07T05:09:14;4.30;99.90
2100;DHT22;1055;48.854;9.302;2022-12-07T05:11:40;4.70;99.90
2100;DHT22;1055;48.854;9.302;2022-12-07T05:14:16;5.00;99.90
2100;DHT22;1055;48.854;9.302;2022-12-07T05:16:43;5.50;99.90
2100;DHT22;1055;48.854;9.302;2022-12-07T05:19:10;5.60;99.90
2100;DHT22;1055;48.854;9.302;2022-12-07T05:21:36;5.20;99.90
2100;DHT22;1055;48.854;9.302;2022-12-07T05:24:02;4.70;99.90
2100;DHT22;1055;48.854;9.302;2022-12-07T05:26:28;4.90;99.90
2100;DHT22;1055;48.854;9.302;2022-12-07T05:28:55;4.80;99.90
2100;DHT22;1055;48.854;9.302;2022-12-07T05:31:21;4.50;99.90
2100;DHT22;1055;48.854;9.302;2022-12-07T05:33:47;4.60;99.90
2100;DHT22;1055;48.854;9.302;2022-12-07T05:36:13;4.80;99.90
2100;DHT22;1055;48.854;9.302;2022-12-07T05:38:38;5.00;99.90
2100;DHT22;1055;48.854;9.302;2022-12-07T05:41:06;5.00;99.90
2100;DHT22;1055;48.854;9.302;2022-12-07T05:43:32;4.70;99.90
2100;DHT22;1055;48.854;9.302;2022-12-07T05:45:59;4.70;99.90
2100;DHT22;1055;48.854;9.302;2022-12-07T05:48:25;4.50;99.90
2100;DHT22;1055;48.854;9.302;2022-12-07T05:50:51;4.50;99.90
2100;DHT22;1055;48.854;9.302;2022-12-07T05:53:17;4.40;99.90
2100;DHT22;1055;48.854;9.302;2022-12-07T05:55:44;4.40;99.90
2100;DHT22;1055;48.854;9.302;2022-12-07T05:58:09;4.50;99.90
2100;DHT22;1055;48.854;9.302;2022-12-07T06:00:57;4.50;99.90
2100;DHT22;1055;48.854;9.302;2022-12-07T06:03:23;4.50;99.90
2100;DHT22;1055;48.854;9.302;2022-12-07T06:05:48;4.60;99.90
2100;DHT22;1055;48.854;9.302;2022-12-07T06:08:14;4.40;99.90
2100;DHT22;1055;48.854;9.302;2022-12-07T06:10:41;4.20;99.90
2100;DHT22;1055;48.854;9.302;2022-12-07T06:13:08;4.40;99.90
2100;DHT22;1055;48.854;9.302;2022-12-07T06:15:36;4.40;99.90
2100;DHT22;1055;48.854;9.302;2022-12-07T06:18:02;4.20;99.90
2100;DHT22;1055;48.854;9.302;2022-12-07T06:20:28;3.70;99.90
2100;DHT22;1055;48.854;9.302;2022-12-07T06:22:53;3.30;99.90
2100;DHT22;1055;48.854;9.302;2022-12-07T06:25:19;3.30;99.90
2100;DHT22;1055;48.854;9.302;2022-12-07T06:27:44;3.50;99.90
2100;DHT22;1055;48.854;9.302;2022-12-07T06:30:10;3.50;99.90
2100;DHT22;1055;48.854;9.302;2022-12-07T06:32:37;3.30;99.90
2100;DHT22;1055;48.854;9.302;2022-12-07T06:35:03;2.80;99.90
2100;DHT22;1055;48.854;9.302;2022-12-07T06:37:29;2.70;99.90
2100;DHT22;1055;48.854;9.302;2022-12-07T06:39:54;2.60;99.90
2100;DHT22;1055;48.854;9.302;2022-12-07T06:42:20;2.90;99.90
2100;DHT22;1055;48.854;9.302;2022-12-07T06:44:46;2.80;99.90
2100;DHT22;1055;48.854;9.302;2022-12-07T06:47:13;2.80;99.90
2100;DHT22;1055;48.854;9.302;2022-12-07T06:49:38;2.70;99.90
2100;DHT22;1055;48.854;9.302;2022-12-07T06:52:04;2.90;99.90
2100;DHT22;1055;48.854;9.302;2022-12-07T06:54:31;3.00;99.90
2100;DHT22;1055;48.854;9.302;2022-12-07T06:56:57;3.00;99.90
2100;DHT22;1055;48.854;9.302;2022-12-07T06:59:22;3.30;99.90
2100;DHT22;1055;48.854;9.302;2022-12-07T07:01:48;3.60;99.90
2100;DHT22;1055;48.854;9.302;2022-12-07T07:04:13;3.00;99.90
2100;DHT22;1055;48.854;9.302;2022-12-07T07:06:39;2.90;99.90
2100;DHT22;1055;48.854;9.302;2022-12-07T07:09:05;3.00;99.90
2100;DHT22;1055;48.854;9.302;2022-12-07T07:11:30;3.10;99.90
2100;DHT22;1055;48.854;9.302;2022-12-07T07:13:56;3.30;99.90
2100;DHT22;1055;48.854;9.302;2022-12-07T07:16:24;3.60;99.90
2100;DHT22;1055;48.854;9.302;2022-12-07T07:18:50;3.70;99.90
2100;DHT22;1055;48.854;9.302;2022-12-07T07:21:15;3.90;99.90
2100;DHT22;1055;48.854;9.302;2022-12-07T07:23:41;4.10;99.90
2100;DHT22;1055;48.854;9.302;2022-12-07T07:26:07;4.20;99.90
2100;DHT22;1055;48.854;9.302;2022-12-07T07:28:32;3.90;99.90
2100;DHT22;1055;48.854;9.302;2022-12-07T07:30:58;4.00;99.90
2100;DHT22;1055;48.854;9.302;2022-12-07T07:33:23;3.60;99.90
2100;DHT22;1055;48.854;9.302;2022-12-07T07:35:49;3.50;99.90
2100;DHT22;1055;48.854;9.302;2022-12-07T07:38:15;3.60;99.90
2100;DHT22;1055;48.854;9.302;2022-12-07T07:40:40;3.40;99.90
2100;DHT22;1055;48.854;9.302;2022-12-07T07:43:06;3.30;99.90
2100;DHT22;1055;48.854;9.302;2022-12-07T07:45:32;3.10;99.90
2100;DHT22;1055;48.854;9.302;2022-12-07T07:47:57;3.40;99.90
2100;DHT22;1055;48.854;9.302;2022-12-07T07:50:23;3.30;99.90
2100;DHT22;1055;48.854;9.302;2022-12-07T07:52:49;3.10;99.90
2100;DHT22;1055;48.854;9.302;2022-12-07T07:55:15;3.10;99.90
2100;DHT22;1055;48.854;9.302;2022-12-07T07:57:41;2.80;99.90
2100;DHT22;1055;48.854;9.302;2022-12-07T08:00:09;2.80;99.90
2100;DHT22;1055;48.854;9.302;2022-12-07T08:02:35;3.00;99.90
2100;DHT22;1055;48.854;9.302;2022-12-07T08:05:01;2.90;99.90
2100;DHT22;1055;48.854;9.302;2022-12-07T08:07:27;2.90;99.90
2100;DHT22;1055;48.854;9.302;2022-12-07T08:09:53;3.00;99.90
2100;DHT22;1055;48.854;9.302;2022-12-07T08:12:19;3.10;99.90
2100;DHT22;1055;48.854;9.302;2022-12-07T08:14:44;3.20;99.90
2100;DHT22;1055;48.854;9.302;2022-12-07T08:17:10;3.20;99.90
2100;DHT22;1055;48.854;9.302;2022-12-07T08:19:36;3.20;99.90
2100;DHT22;1055;48.854;9.302;2022-12-07T08:22:02;3.20;99.90
2100;DHT22;1055;48.854;9.302;2022-12-07T08:24:27;3.20;99.90
2100;DHT22;1055;48.854;9.302;2022-12-07T08:26:53;3.20;99.90
2100;DHT22;1055;48.854;9.302;2022-12-07T08:29:19;3.40;99.90
2100;DHT22;1055;48.854;9.302;2022-12-07T08:31:44;3.50;99.90
2100;DHT22;1055;48.854;9.302;2022-12-07T08:34:11;3.60;99.90
2100;DHT22;1055;48.854;9.302;2022-12-07T08:36:37;3.60;99.90
2100;DHT22;1055;48.854;9.302;2022-12-07T08:39:02;3.70;99.90
2100;DHT22;1055;48.854;9.302;2022-12-07T08:41:28;3.80;99.90
2100;DHT22;1055;48.854;9.302;2022-12-07T08:43:54;3.80;99.90
2100;DHT22;1055;48.854;9.302;2022-12-07T08:46:40;3.90;99.90
2100;DHT22;1055;48.854;9.302;2022-12-07T08:49:22;4.00;99.90
2100;DHT22;1055;48.854;9.302;2022-12-07T08:51:50;4.10;99.90
2100;DHT22;1055;48.854;9.302;2022-12-07T08:54:17;4.10;99.90
2100;DHT22;1055;48.854;9.302;2022-12-07T08:56:45;4.10;99.90
2100;DHT22;1055;48.854;9.302;2022-12-07T08:59:13;4.00;99.90
2100;DHT22;1055;48.854;9.302;2022-12-07T09:01:39;3.90;99.90
2100;DHT22;1055;48.854;9.302;2022-12-07T09:04:05;4.00;99.90
2100;DHT22;1055;48.854;9.302;2022-12-07T09:06:31;4.00;99.90
2100;DHT22;1055;48.854;9.302;2022-12-07T09:08:58;4.00;99.90
2100;DHT22;1055;48.854;9.302;2022-12-07T09:11:24;4.10;99.90
2100;DHT22;1055;48.854;9.302;2022-12-07T09:13:50;4.10;99.90
2100;DHT22;1055;48.854;9.302;2022-12-07T09:16:16;4.20;99.90
2100;DHT22;1055;48.854;9.302;2022-12-07T09:18:41;4.30;99.90
2100;DHT22;1055;48.854;9.302;2022-12-07T09:21:07;4.40;99.90
2100;DHT22;1055;48.854;9.302;2022-12-07T09:23:33;4.30;99.90
2100;DHT22;1055;48.854;9.302;2022-12-07T09:26:00;4.40;99.90
2100;DHT22;1055;48.854;9.302;2022-12-07T09:28:26;4.40;99.90
2100;DHT22;1055;48.854;9.302;2022-12-07T09:30:51;4.50;99.90
2100;DHT22;1055;48.854;9.302;2022-12-07T09:33:17;4.50;99.90
2100;DHT22;1055;48.854;9.302;2022-12-07T09:35:51;4.50;99.90
2100;DHT22;1055;48.854;9.302;2022-12-07T09:38:17;4.60;99.90
2100;DHT22;1055;48.854;9.302;2022-12-07T09:40:44;4.60;99.90
2100;DHT22;1055;48.854;9.302;2022-12-07T09:43:19;4.70;99.90
2100;DHT22;1055;48.854;9.302;2022-12-07T09:45:48;4.80;99.90
2100;DHT22;1055;48.854;9.302;2022-12-07T09:48:18;4.80;99.90
2100;DHT22;1055;48.854;9.302;2022-12-07T09:50:45;4.80;99.90
2100;DHT22;1055;48.854;9.302;2022-12-07T09:53:25;4.90;99.90
2100;DHT22;1055;48.854;9.302;2022-12-07T09:55:51;5.10;99.90
2100;DHT22;1055;48.854;9.302;2022-12-07T09:58:28;5.10;99.90
2100;DHT22;1055;48.854;9.302;2022-12-07T10:00:58;5.10;99.90
2100;DHT22;1055;48.854;9.302;2022-12-07T10:03:26;5.00;99.90
2100;DHT22;1055;48.854;9.302;2022-12-07T10:05:52;5.20;99.90
2100;DHT22;1055;48.854;9.302;2022-12-07T10:08:19;5.20;99.90
2100;DHT22;1055;48.854;9.302;2022-12-07T10:10:46;5.20;99.90
2100;DHT22;1055;48.854;9.302;2022-12-07T10:13:16;5.30;99.90
2100;DHT22;1055;48.854;9.302;2022-12-07T10:15:55;5.30;99.90
2100;DHT22;1055;48.854;9.302;2022-12-07T10:18:33;5.40;99.90
2100;DHT22;1055;48.854;9.302;2022-12-07T10:21:19;5.40;99.90
2100;DHT22;1055;48.854;9.302;2022-12-07T10:24:04;5.40;99.90
2100;DHT22;1055;48.854;9.302;2022-12-07T10:26:38;5.50;99.90
2100;DHT22;1055;48.854;9.302;2022-12-07T10:29:30;5.50;99.90
2100;DHT22;1055;48.854;9.302;2022-12-07T10:34:36;5.40;99.90
2100;DHT22;1055;48.854;9.302;2022-12-07T10:39:57;5.00;99.90
2100;DHT22;1055;48.854;9.302;2022-12-07T10:42:28;5.00;99.90
2100;DHT22;1055;48.854;9.302;2022-12-07T10:45:18;5.10;99.90
2100;DHT22;1055;48.854;9.302;2022-12-07T10:53:54;4.90;99.90
2100;DHT22;1055;48.854;9.302;2022-12-07T11:04:37;5.00;99.90
2100;DHT22;1055;48.854;9.302;2022-12-07T11:07:18;5.00;99.90
2100;DHT22;1055;48.854;9.302;2022-12-07T11:10:18;5.00;99.90
2100;DHT22;1055;48.854;9.302;2022-12-07T11:12:54;5.20;99.90
2100;DHT22;1055;48.854;9.302;2022-12-07T11:18:14;5.20;99.90
2100;DHT22;1055;48.854;9.302;2022-12-07T11:21:09;5.30;99.90
2100;DHT22;1055;48.854;9.302;2022-12-07T11:23:53;5.30;99.90
2100;DHT22;1055;48.854;9.302;2022-12-07T11:26:41;5.20;99.90
2100;DHT22;1055;48.854;9.302;2022-12-07T11:35:16;5.20;99.90
2100;DHT22;1055;48.854;9.302;2022-12-07T11:37:46;5.30;99.90
2100;DHT22;1055;48.854;9.302;2022-12-07T11:40:22;5.20;99.90
2100;DHT22;1055;48.854;9.302;2022-12-07T11:45:37;5.10;99.90
2100;DHT22;1055;48.854;9.302;2022-12-07T11:48:25;5.00;99.90
2100;DHT22;1055;48.854;9.302;2022-12-07T11:50:59;4.90;99.90
2100;DHT22;1055;48.854;9.302;2022-12-07T11:53:37;4.90;99.90
2100;DHT22;1055;48.854;9.302;2022-12-07T11:56:10;5.00;99.90
2100;DHT22;1055;48.854;9.302;2022-12-07T12:01:56;4.90;99.90
2100;DHT22;1055;48.854;9.302;2022-12-07T12:04:30;4.80;99.90
2100;DHT22;1055;48.854;9.302;2022-12-07T12:06:57;4.90;99.90
2100;DHT22;1055;48.854;9.302;2022-12-07T12:09:25;4.80;99.90
2100;DHT22;1055;48.854;9.302;2022-12-07T12:23:00;4.80;99.90
2100;DHT22;1055;48.854;9.302;2022-12-07T12:25:47;4.90;99.90
2100;DHT22;1055;48.854;9.302;2022-12-07T12:31:13;4.90;99.90
2100;DHT22;1055;48.854;9.302;2022-12-07T12:33:44;4.80;99.90
2100;DHT22;1055;48.854;9.302;2022-12-07T12:51:53;5.10;99.90
2100;DHT22;1055;48.854;9.302;2022-12-07T12:59:32;5.10;99.90
2100;DHT22;1055;48.854;9.302;2022-12-07T13:15:50;5.00;99.90
2100;DHT22;1055;48.854;9.302;2022-12-07T13:26:19;5.10;99.90
2100;DHT22;1055;48.854;9.302;2022-12-07T13:31:38;5.10;99.90
2100;DHT22;1055;48.854;9.302;2022-12-07T13:34:27;5.10;99.90
2100;DHT22;1055;48.854;9.302;2022-12-07T13:36:51;5.00;99.90
2100;DHT22;1055;48.854;9.302;2022-12-07T13:39:25;5.20;99.90
2100;DHT22;1055;48.854;9.302;2022-12-07T13:41:54;5.10;99.90
2100;DHT22;1055;48.854;9.302;2022-12-07T13:44:23;5.10;99.90
2100;DHT22;1055;48.854;9.302;2022-12-07T13:47:12;5.00;99.90
2100;DHT22;1055;48.854;9.302;2022-12-07T13:49:54;4.90;99.90
2100;DHT22;1055;48.854;9.302;2022-12-07T13:54:55;4.80;99.90
2100;DHT22;1055;48.854;9.302;2022-12-07T13:57:21;4.90;99.90
2100;DHT22;1055;48.854;9.302;2022-12-07T13:59:47;4.80;99.90
2100;DHT22;1055;48.854;9.302;2022-12-07T14:02:30;4.80;99.90
2100;DHT22;1055;48.854;9.302;2022-12-07T14:05:26;4.90;99.90
2100;DHT22;1055;48.854;9.302;2022-12-07T14:07:57;4.90;99.90
2100;DHT22;1055;48.854;9.302;2022-12-07T14:12:55;5.10;99.90
2100;DHT22;1055;48.854;9.302;2022-12-07T14:15:29;5.10;99.90
2100;DHT22;1055;48.854;9.302;2022-12-07T14:17:56;5.20;99.90
2100;DHT22;1055;48.854;9.302;2022-12-07T14:22:56;5.30;99.90
2100;DHT22;1055;48.854;9.302;2022-12-07T14:25:26;5.40;99.90
2100;DHT22;1055;48.854;9.302;2022-12-07T14:28:00;5.50;99.90
2100;DHT22;1055;48.854;9.302;2022-12-07T14:30:29;5.60;99.90
2100;DHT22;1055;48.854;9.302;2022-12-07T14:33:03;5.60;99.90
2100;DHT22;1055;48.854;9.302;2022-12-07T14:35:30;5.70;99.90
2100;DHT22;1055;48.854;9.302;2022-12-07T14:37:56;5.50;99.90
2100;DHT22;1055;48.854;9.302;2022-12-07T14:40:25;5.30;99.90
2100;DHT22;1055;48.854;9.302;2022-12-07T14:43:02;5.50;99.90
2100;DHT22;1055;48.854;9.302;2022-12-07T14:45:28;5.30;99.90
2100;DHT22;1055;48.854;9.302;2022-12-07T14:47:54;5.30;99.90
2100;DHT22;1055;48.854;9.302;2022-12-07T14:50:20;5.20;99.90
2100;DHT22;1055;48.854;9.302;2022-12-07T14:52:49;5.30;99.90
2100;DHT22;1055;48.854;9.302;2022-12-07T14:55:23;5.30;99.90
2100;DHT22;1055;48.854;9.302;2022-12-07T14:57:48;5.30;99.90
2100;DHT22;1055;48.854;9.302;2022-12-07T15:00:15;5.10;99.90
2100;DHT22;1055;48.854;9.302;2022-12-07T15:02:46;5.10;99.90
2100;DHT22;1055;48.854;9.302;2022-12-07T15:05:12;5.00;99.90
2100;DHT22;1055;48.854;9.302;2022-12-07T15:07:38;5.00;99.90
2100;DHT22;1055;48.854;9.302;2022-12-07T15:10:05;5.10;99.90
2100;DHT22;1055;48.854;9.302;2022-12-07T15:12:31;5.10;99.90
2100;DHT22;1055;48.854;9.302;2022-12-07T15:14:56;5.10;99.90
2100;DHT22;1055;48.854;9.302;2022-12-07T15:17:22;5.10;99.90
2100;DHT22;1055;48.854;9.302;2022-12-07T15:19:47;5.00;99.90
2100;DHT22;1055;48.854;9.302;2022-12-07T15:22:13;4.90;99.90
2100;DHT22;1055;48.854;9.302;2022-12-07T15:24:39;5.00;99.90
2100;DHT22;1055;48.854;9.302;2022-12-07T15:27:04;4.90;99.90
2100;DHT22;1055;48.854;9.302;2022-12-07T15:29:30;4.90;99.90
2100;DHT22;1055;48.854;9.302;2022-12-07T15:31:56;4.90;99.90
2100;DHT22;1055;48.854;9.302;2022-12-07T15:34:23;4.90;99.90
2100;DHT22;1055;48.854;9.302;2022-12-07T15:36:50;4.90;99.90
2100;DHT22;1055;48.854;9.302;2022-12-07T15:39:15;4.80;99.90
2100;DHT22;1055;48.854;9.302;2022-12-07T15:41:41;4.70;99.90
2100;DHT22;1055;48.854;9.302;2022-12-07T15:44:10;4.70;99.90
2100;DHT22;1055;48.854;9.302;2022-12-07T15:47:04;4.70;99.90
2100;DHT22;1055;48.854;9.302;2022-12-07T15:49:29;4.60;99.90
2100;DHT22;1055;48.854;9.302;2022-12-07T15:51:55;4.50;99.90
2100;DHT22;1055;48.854;9.302;2022-12-07T15:54:26;4.50;99.90
2100;DHT22;1055;48.854;9.302;2022-12-07T15:56:52;4.70;99.90
2100;DHT22;1055;48.854;9.302;2022-12-07T15:59:18;4.60;99.90
2100;DHT22;1055;48.854;9.302;2022-12-07T16:01:44;4.70;99.90
2100;DHT22;1055;48.854;9.302;2022-12-07T16:04:10;4.70;99.90
2100;DHT22;1055;48.854;9.302;2022-12-07T16:06:36;4.60;99.90
2100;DHT22;1055;48.854;9.302;2022-12-07T16:09:01;4.60;99.90
2100;DHT22;1055;48.854;9.302;2022-12-07T16:11:27;4.60;99.90
2100;DHT22;1055;48.854;9.302;2022-12-07T16:13:53;4.70;99.90
2100;DHT22;1055;48.854;9.302;2022-12-07T16:16:19;4.70;99.90
2100;DHT22;1055;48.854;9.302;2022-12-07T16:18:47;4.90;99.90
2100;DHT22;1055;48.854;9.302;2022-12-07T16:21:14;4.80;99.90
2100;DHT22;1055;48.854;9.302;2022-12-07T16:23:40;4.80;99.90
2100;DHT22;1055;48.854;9.302;2022-12-07T16:26:18;4.70;99.90
2100;DHT22;1055;48.854;9.302;2022-12-07T16:28:44;4.60;99.90
2100;DHT22;1055;48.854;9.302;2022-12-07T16:31:16;4.40;99.90
2100;DHT22;1055;48.854;9.302;2022-12-07T16:33:43;4.40;99.90
2100;DHT22;1055;48.854;9.302;2022-12-07T16:36:10;4.40;99.90
2100;DHT22;1055;48.854;9.302;2022-12-07T16:38:37;4.30;99.90
2100;DHT22;1055;48.854;9.302;2022-12-07T16:41:07;4.30;99.90
2100;DHT22;1055;48.854;9.302;2022-12-07T16:43:32;4.30;99.90
2100;DHT22;1055;48.854;9.302;2022-12-07T16:45:58;4.20;99.90
2100;DHT22;1055;48.854;9.302;2022-12-07T16:48:24;4.10;99.90
2100;DHT22;1055;48.854;9.302;2022-12-07T16:50:49;4.20;99.90
2100;DHT22;1055;48.854;9.302;2022-12-07T16:53:16;4.10;99.90
2100;DHT22;1055;48.854;9.302;2022-12-07T16:55:44;4.10;99.90
2100;DHT22;1055;48.854;9.302;2022-12-07T16:58:11;4.00;99.90
2100;DHT22;1055;48.854;9.302;2022-12-07T17:00:37;4.00;99.90
2100;DHT22;1055;48.854;9.302;2022-12-07T17:03:03;4.00;99.90
2100;DHT22;1055;48.854;9.302;2022-12-07T17:05:29;4.10;99.90
2100;DHT22;1055;48.854;9.302;2022-12-07T17:07:56;4.20;99.90
2100;DHT22;1055;48.854;9.302;2022-12-07T17:10:23;4.30;99.90
2100;DHT22;1055;48.854;9.302;2022-12-07T17:12:49;4.20;99.90
2100;DHT22;1055;48.854;9.302;2022-12-07T17:15:16;4.10;99.90
2100;DHT22;1055;48.854;9.302;2022-12-07T17:17:56;4.00;99.90
2100;DHT22;1055;48.854;9.302;2022-12-07T17:20:23;4.00;99.90
2100;DHT22;1055;48.854;9.302;2022-12-07T17:22:50;3.90;99.90
2100;DHT22;1055;48.854;9.302;2022-12-07T17:25:15;3.80;99.90
2100;DHT22;1055;48.854;9.302;2022-12-07T17:27:41;3.80;99.90
2100;DHT22;1055;48.854;9.302;2022-12-07T17:30:08;3.90;99.90
2100;DHT22;1055;48.854;9.302;2022-12-07T17:32:34;4.00;99.90
2100;DHT22;1055;48.854;9.302;2022-12-07T17:34:59;4.00;99.90
2100;DHT22;1055;48.854;9.302;2022-12-07T17:37:26;4.10;99.90
2100;DHT22;1055;48.854;9.302;2022-12-07T17:39:52;4.10;99.90
2100;DHT22;1055;48.854;9.302;2022-12-07T17:42:18;4.10;99.90
2100;DHT22;1055;48.854;9.302;2022-12-07T17:45:08;4.20;99.90
2100;DHT22;1055;48.854;9.302;2022-12-07T17:47:36;4.30;99.90
2100;DHT22;1055;48.854;9.302;2022-12-07T17:50:02;4.50;99.90
2100;DHT22;1055;48.854;9.302;2022-12-07T17:52:28;4.70;99.90
2100;DHT22;1055;48.854;9.302;2022-12-07T17:55:12;4.90;99.90
2100;DHT22;1055;48.854;9.302;2022-12-07T17:57:38;4.80;99.90
2100;DHT22;1055;48.854;9.302;2022-12-07T18:00:04;5.00;99.90
2100;DHT22;1055;48.854;9.302;2022-12-07T18:02:30;5.10;99.90
2100;DHT22;1055;48.854;9.302;2022-12-07T18:04:56;5.20;99.90
2100;DHT22;1055;48.854;9.302;2022-12-07T18:07:22;5.40;99.90
2100;DHT22;1055;48.854;9.302;2022-12-07T18:09:47;5.40;99.90
2100;DHT22;1055;48.854;9.302;2022-12-07T18:12:13;5.30;99.90
2100;DHT22;1055;48.854;9.302;2022-12-07T18:14:39;5.30;99.90
2100;DHT22;1055;48.854;9.302;2022-12-07T18:17:04;5.20;99.90
2100;DHT22;1055;48.854;9.302;2022-12-07T18:19:30;5.20;99.90
2100;DHT22;1055;48.854;9.302;2022-12-07T18:21:57;5.40;99.90
2100;DHT22;1055;48.854;9.302;2022-12-07T18:24:23;5.50;99.90
2100;DHT22;1055;48.854;9.302;2022-12-07T18:26:49;5.50;99.90
2100;DHT22;1055;48.854;9.302;2022-12-07T18:29:17;5.50;99.90
2100;DHT22;1055;48.854;9.302;2022-12-07T18:31:43;5.50;99.90
2100;DHT22;1055;48.854;9.302;2022-12-07T18:34:11;5.20;99.90
2100;DHT22;1055;48.854;9.302;2022-12-07T18:36:39;5.40;99.90
2100;DHT22;1055;48.854;9.302;2022-12-07T18:39:07;5.30;99.90
2100;DHT22;1055;48.854;9.302;2022-12-07T18:41:33;5.20;99.90